createdAt,value
2022-11-25T00:00:47.444Z,98344.69
2022-11-25T00:01:49.240Z,98327.66
2022-11-25T00:02:50.912Z,98326.44
2022-11-25T00:03:55.073Z,98330.59
2022-11-25T00:04:56.631Z,98328.59
2022-11-25T00:06:07.192Z,98334.44
2022-11-25T00:07:08.664Z,98338.44
2022-11-25T00:08:10.169Z,98336.75
2022-11-25T00:09:12.965Z,98338.91
2022-11-25T00:10:14.364Z,98342.91
2022-11-25T00:11:17.081Z,98339.69
2022-11-25T00:12:18.558Z,98342.63
2022-11-25T00:13:19.945Z,98338.59
2022-11-25T00:14:21.524Z,98345.66
2022-11-25T00:15:23.263Z,98333.69
2022-11-25T00:16:26.550Z,98342.91
2022-11-25T00:17:28.077Z,98331.41
2022-11-25T00:18:29.825Z,98331.41
2022-11-25T00:19:31.298Z,98332.94
2022-11-25T00:20:33.028Z,98329.84
2022-11-25T00:21:34.719Z,98335.56
2022-11-25T00:22:36.136Z,98331.53
2022-11-25T00:23:38.230Z,98334.91
2022-11-25T00:24:39.631Z,98336.16
2022-11-25T00:25:41.453Z,98331.25
2022-11-25T00:26:42.898Z,98336.47
2022-11-25T00:27:44.330Z,98337.56
2022-11-25T00:28:47.094Z,98336.00
2022-11-25T00:29:48.576Z,98336.00
2022-11-25T00:30:50.294Z,98333.25
2022-11-25T00:31:51.824Z,98333.56
2022-11-25T00:32:54.441Z,98338.78
2022-11-25T00:33:56.204Z,98332.47
2022-11-25T00:34:57.628Z,98330.66
2022-11-25T00:36:02.777Z,98330.94
2022-11-25T00:37:04.203Z,98335.25
2022-11-25T00:38:08.050Z,98335.56
2022-11-25T00:39:19.880Z,98339.09
2022-11-25T00:40:21.680Z,98333.56
2022-11-25T00:41:42.448Z,98344.75
2022-11-25T00:43:02.118Z,98338.31
2022-11-25T00:44:22.537Z,98331.09
2022-11-25T00:45:23.986Z,98331.88
2022-11-25T00:46:25.428Z,98337.09
2022-11-25T00:47:27.048Z,98333.25
2022-11-25T00:48:28.503Z,98336.16
2022-11-25T00:49:29.932Z,98338.16
2022-11-25T00:50:31.671Z,98341.84
2022-11-25T00:51:33.452Z,98344.31
2022-11-25T00:52:37.006Z,98340.94
2022-11-25T00:53:38.382Z,98337.41
2022-11-25T00:54:39.803Z,98343.38
2022-11-25T00:56:01.817Z,98338.16
2022-11-25T00:57:03.412Z,98348.44
2022-11-25T00:58:04.824Z,98346.31
2022-11-25T00:59:06.432Z,98344.91
2022-11-25T01:00:10.360Z,98347.53
2022-11-25T01:01:12.555Z,98345.72
2022-11-25T01:02:17.094Z,98350.13
2022-11-25T01:03:18.699Z,98347.84
2022-11-25T01:04:20.240Z,98348.59
2022-11-25T01:05:21.949Z,98348.59
2022-11-25T01:06:23.855Z,98347.06
2022-11-25T01:07:25.338Z,98344.78
2022-11-25T01:08:26.769Z,98347.69
2022-11-25T01:09:29.280Z,98348.75
2022-11-25T01:10:30.705Z,98341.25
2022-11-25T01:11:32.413Z,98344.47
2022-11-25T01:12:33.861Z,98344.00
2022-11-25T01:13:35.328Z,98342.00
2022-11-25T01:14:37.468Z,98341.25
2022-11-25T01:15:39.084Z,98340.78
2022-11-25T01:16:40.648Z,98337.88
2022-11-25T01:17:42.119Z,98336.63
2022-11-25T01:18:44.651Z,98341.41
2022-11-25T01:19:46.394Z,98342.16
2022-11-25T01:20:47.874Z,98336.78
2022-11-25T01:21:49.391Z,98346.44
2022-11-25T01:22:51.984Z,98340.78
2022-11-25T01:23:53.746Z,98342.16
2022-11-25T01:24:55.481Z,98336.66
2022-11-25T01:25:56.882Z,98346.28
2022-11-25T01:26:58.527Z,98344.00
2022-11-25T01:28:00.126Z,98341.88
2022-11-25T01:29:05.594Z,98332.19
2022-11-25T01:30:07.758Z,98338.19
2022-11-25T01:31:15.348Z,98347.53
2022-11-25T01:32:17.506Z,98343.38
2022-11-25T01:33:18.901Z,98343.38
2022-11-25T01:34:23.014Z,98341.88
2022-11-25T01:35:24.860Z,98332.78
2022-11-25T01:36:27.062Z,98347.19
2022-11-25T01:37:28.492Z,98341.38
2022-11-25T01:38:30.771Z,98339.09
2022-11-25T01:39:33.318Z,98343.22
2022-11-25T01:40:36.314Z,98335.72
2022-11-25T01:41:37.722Z,98336.78
2022-11-25T01:42:43.872Z,98339.69
2022-11-25T01:44:03.907Z,98341.53
2022-11-25T01:45:27.867Z,98343.69
2022-11-25T01:46:45.349Z,98338.47
2022-11-25T01:47:46.820Z,98335.72
2022-11-25T01:48:50.269Z,98333.84
2022-11-25T01:50:03.492Z,98343.03
2022-11-25T01:51:06.195Z,98340.31
2022-11-25T01:52:07.760Z,98346.28
2022-11-25T01:53:11.940Z,98339.81
2022-11-25T01:54:17.662Z,98337.22
2022-11-25T01:55:24.277Z,98340.91
2022-11-25T01:56:30.441Z,98339.81
2022-11-25T01:57:41.285Z,98341.84
2022-11-25T01:58:46.343Z,98345.03
2022-11-25T01:59:51.709Z,98339.38
2022-11-25T02:00:53.215Z,98341.97
2022-11-25T02:01:56.491Z,98350.72
2022-11-25T02:02:58.901Z,98349.47
2022-11-25T02:04:01.220Z,98345.00
2022-11-25T02:05:07.884Z,98343.97
2022-11-25T02:06:19.186Z,98343.97
2022-11-25T02:07:34.767Z,98341.81
2022-11-25T02:08:36.626Z,98338.13
2022-11-25T02:09:41.744Z,98340.72
2022-11-25T02:10:44.742Z,98339.38
2022-11-25T02:11:46.718Z,98336.00
2022-11-25T02:12:48.820Z,98333.81
2022-11-25T02:13:51.559Z,98338.28
2022-11-25T02:14:55.721Z,98343.03
2022-11-25T02:15:57.359Z,98338.25
2022-11-25T02:17:01.774Z,98349.75
2022-11-25T02:18:03.632Z,98347.16
2022-11-25T02:19:09.560Z,98345.31
2022-11-25T02:20:17.369Z,98341.63
2022-11-25T02:21:26.365Z,98343.19
2022-11-25T02:22:56.262Z,98342.09
2022-11-25T02:24:04.331Z,98341.78
2022-11-25T02:25:13.411Z,98342.88
2022-11-25T02:26:15.097Z,98345.47
2022-11-25T02:27:18.024Z,98347.16
2022-11-25T02:28:23.643Z,98343.50
2022-11-25T02:29:26.130Z,98340.88
2022-11-25T02:30:27.672Z,98342.28
2022-11-25T02:31:29.246Z,98341.19
2022-11-25T02:32:31.108Z,98343.94
2022-11-25T02:33:32.682Z,98346.72
2022-11-25T02:34:34.439Z,98335.06
2022-11-25T02:35:56.720Z,98341.16
2022-11-25T02:36:59.119Z,98340.72
2022-11-25T02:38:08.371Z,98339.16
2022-11-25T02:39:10.074Z,98340.72
2022-11-25T02:40:13.271Z,98335.78
2022-11-25T02:41:20.986Z,98345.63
2022-11-25T02:42:23.391Z,98338.09
2022-11-25T02:43:27.186Z,98328.44
2022-11-25T02:44:28.961Z,98335.50
2022-11-25T02:45:40.956Z,98331.06
2022-11-25T02:46:42.463Z,98338.72
2022-11-25T02:47:44.245Z,98343.47
2022-11-25T02:49:07.983Z,98340.38
2022-11-25T02:50:08.222Z,98341.75
2022-11-25T02:51:12.595Z,98339.94
2022-11-25T02:52:14.374Z,98333.63
2022-11-25T02:53:16.607Z,98347.75
2022-11-25T02:54:18.073Z,98341.28
2022-11-25T02:55:19.517Z,98339.44
2022-11-25T02:56:22.864Z,98332.69
2022-11-25T02:57:24.681Z,98330.84
2022-11-25T02:58:26.421Z,98343.44
2022-11-25T02:59:27.872Z,98333.28
2022-11-25T03:00:29.316Z,98332.53
2022-11-25T03:01:31.591Z,98334.09
2022-11-25T03:02:34.405Z,98336.22
2022-11-25T03:03:36.982Z,98346.63
2022-11-25T03:04:38.957Z,98345.56
2022-11-25T03:05:40.794Z,98329.00
2022-11-25T03:06:42.327Z,98342.81
2022-11-25T03:07:43.828Z,98336.66
2022-11-25T03:08:45.359Z,98342.47
2022-11-25T03:09:46.857Z,98346.16
2022-11-25T03:10:48.447Z,98344.00
2022-11-25T03:12:08.578Z,98343.22
2022-11-25T03:13:10.402Z,98342.28
2022-11-25T03:14:12.046Z,98343.84
2022-11-25T03:15:13.557Z,98355.03
2022-11-25T03:16:15.097Z,98351.34
2022-11-25T03:17:16.637Z,98352.13
2022-11-25T03:18:18.090Z,98348.00
2022-11-25T03:19:19.547Z,98351.34
2022-11-25T03:20:21.118Z,98353.34
2022-11-25T03:21:22.564Z,98352.56
2022-11-25T03:22:24.948Z,98347.38
2022-11-25T03:23:26.847Z,98349.97
2022-11-25T03:24:28.458Z,98349.19
2022-11-25T03:25:30.139Z,98350.44
2022-11-25T03:26:31.703Z,98347.84
2022-11-25T03:27:37.310Z,98346.78
2022-11-25T03:28:38.751Z,98346.31
2022-11-25T03:29:40.214Z,98349.19
2022-11-25T03:30:43.000Z,98342.47
2022-11-25T03:31:44.530Z,98349.50
2022-11-25T03:32:46.707Z,98344.63
2022-11-25T03:33:48.132Z,98346.28
2022-11-25T03:34:49.737Z,98343.69
2022-11-25T03:35:51.149Z,98345.22
2022-11-25T03:36:52.622Z,98350.88
2022-11-25T03:37:54.486Z,98347.50
2022-11-25T03:38:55.906Z,98347.94
2022-11-25T03:39:57.376Z,98349.91
2022-11-25T03:40:58.835Z,98351.00
2022-11-25T03:42:00.290Z,98349.31
2022-11-25T03:43:01.929Z,98353.16
2022-11-25T03:44:03.511Z,98346.09
2022-11-25T03:45:06.072Z,98352.09
2022-11-25T03:46:07.556Z,98347.63
2022-11-25T03:47:09.821Z,98351.31
2022-11-25T03:48:11.358Z,98344.28
2022-11-25T03:49:12.839Z,98350.56
2022-11-25T03:50:15.351Z,98340.28
2022-11-25T03:51:16.798Z,98344.72
2022-11-25T03:52:18.873Z,98337.97
2022-11-25T03:53:20.291Z,98338.25
2022-11-25T03:54:21.739Z,98342.25
2022-11-25T03:55:23.174Z,98343.28
2022-11-25T03:56:24.682Z,98339.91
2022-11-25T03:57:26.488Z,98344.66
2022-11-25T03:58:27.915Z,98339.72
2022-11-25T03:59:29.357Z,98342.78
2022-11-25T04:00:31.286Z,98344.03
2022-11-25T04:01:32.843Z,98343.72
2022-11-25T04:02:34.817Z,98334.84
2022-11-25T04:03:36.367Z,98342.66
2022-11-25T04:04:38.157Z,98345.75
2022-11-25T04:05:40.229Z,98343.13
2022-11-25T04:06:41.802Z,98343.13
2022-11-25T04:07:43.799Z,98345.13
2022-11-25T04:08:46.146Z,98338.88
2022-11-25T04:09:47.743Z,98350.81
2022-11-25T04:10:50.755Z,98339.63
2022-11-25T04:12:11.016Z,98344.09
2022-11-25T04:13:12.677Z,98339.47
2022-11-25T04:14:14.323Z,98345.56
2022-11-25T04:15:17.257Z,98341.72
2022-11-25T04:16:25.015Z,98346.16
2022-11-25T04:17:26.557Z,98347.41
2022-11-25T04:18:28.337Z,98342.66
2022-11-25T04:19:29.844Z,98343.91
2022-11-25T04:20:31.464Z,98340.53
2022-11-25T04:21:33.227Z,98339.47
2022-11-25T04:22:34.735Z,98335.31
2022-11-25T04:23:36.275Z,98328.56
2022-11-25T04:24:38.034Z,98332.72
2022-11-25T04:25:39.968Z,98337.94
2022-11-25T04:26:41.509Z,98335.31
2022-11-25T04:27:42.988Z,98328.09
2022-11-25T04:28:44.915Z,98326.09
2022-11-25T04:29:46.397Z,98326.56
2022-11-25T04:30:47.948Z,98324.75
2022-11-25T04:31:49.428Z,98327.03
2022-11-25T04:32:51.176Z,98321.38
2022-11-25T04:33:52.924Z,98325.03
2022-11-25T04:34:54.565Z,98321.38
2022-11-25T04:35:56.040Z,98325.50
2022-11-25T04:36:57.468Z,98332.38
2022-11-25T04:37:59.201Z,98332.69
2022-11-25T04:39:00.641Z,98331.59
2022-11-25T04:40:02.088Z,98335.47
2022-11-25T04:41:03.818Z,98336.03
2022-11-25T04:42:23.648Z,98339.72
2022-11-25T04:43:25.474Z,98340.19
2022-11-25T04:44:26.923Z,98334.53
2022-11-25T04:45:33.394Z,98332.38
2022-11-25T04:46:47.441Z,98336.22
2022-11-25T04:47:48.916Z,98324.75
2022-11-25T04:48:50.601Z,98326.75
2022-11-25T04:49:52.021Z,98327.50
2022-11-25T04:50:53.472Z,98325.94
2022-11-25T04:51:54.883Z,98327.78
2022-11-25T04:52:56.832Z,98327.66
2022-11-25T04:53:58.340Z,98330.25
2022-11-25T04:54:59.950Z,98330.66
2022-11-25T04:56:01.428Z,98332.81
2022-11-25T04:57:02.905Z,98339.25
2022-11-25T04:58:04.861Z,98335.28
2022-11-25T04:59:24.722Z,98328.25
2022-11-25T05:00:26.342Z,98334.22
2022-11-25T05:01:27.862Z,98334.22
2022-11-25T05:02:29.470Z,98335.75
2022-11-25T05:03:30.957Z,98330.84
2022-11-25T05:04:32.588Z,98337.13
2022-11-25T05:05:34.116Z,98337.88
2022-11-25T05:06:35.550Z,98343.84
2022-11-25T05:07:37.211Z,98337.88
2022-11-25T05:08:38.763Z,98338.34
2022-11-25T05:09:40.455Z,98328.25
2022-11-25T05:10:41.903Z,98329.75
2022-11-25T05:11:43.406Z,98329.47
2022-11-25T05:12:45.202Z,98327.16
2022-11-25T05:13:46.639Z,98336.03
2022-11-25T05:14:49.097Z,98338.19
2022-11-25T05:15:50.548Z,98343.22
2022-11-25T05:16:52.654Z,98339.69
2022-11-25T05:17:54.460Z,98336.47
2022-11-25T05:18:56.841Z,98337.25
2022-11-25T05:19:58.930Z,98332.19
2022-11-25T05:21:04.890Z,98327.78
2022-11-25T05:22:10.966Z,98326.72
2022-11-25T05:23:12.862Z,98331.44
2022-11-25T05:24:14.283Z,98334.03
2022-11-25T05:25:16.603Z,98334.34
2022-11-25T05:26:18.082Z,98337.25
2022-11-25T05:27:21.068Z,98333.56
2022-11-25T05:28:23.101Z,98338.47
2022-11-25T05:29:24.536Z,98337.25
2022-11-25T05:30:26.045Z,98330.22
2022-11-25T05:31:27.710Z,98338.78
2022-11-25T05:32:29.193Z,98333.41
2022-11-25T05:33:30.649Z,98333.41
2022-11-25T05:34:32.174Z,98333.69
2022-11-25T05:35:33.602Z,98328.00
2022-11-25T05:36:35.385Z,98325.41
2022-11-25T05:37:37.319Z,98324.78
2022-11-25T05:38:38.818Z,98338.84
2022-11-25T05:39:40.256Z,98332.88
2022-11-25T05:40:41.655Z,98339.16
2022-11-25T05:41:43.102Z,98336.25
2022-11-25T05:42:44.916Z,98331.06
2022-11-25T05:43:47.555Z,98333.66
2022-11-25T05:44:49.138Z,98335.94
2022-11-25T05:45:50.689Z,98331.81
2022-11-25T05:46:52.315Z,98334.72
2022-11-25T05:47:55.111Z,98338.09
2022-11-25T05:48:57.276Z,98326.31
2022-11-25T05:49:58.964Z,98335.19
2022-11-25T05:51:01.490Z,98343.00
2022-11-25T05:52:03.205Z,98343.75
2022-11-25T05:53:05.401Z,98341.47
2022-11-25T05:54:07.230Z,98342.72
2022-11-25T05:55:08.925Z,98342.22
2022-11-25T05:56:10.769Z,98341.47
2022-11-25T05:57:12.342Z,98344.06
2022-11-25T05:58:13.772Z,98338.84
2022-11-25T05:59:15.310Z,98344.06
2022-11-25T06:00:19.105Z,98340.88
2022-11-25T06:01:23.844Z,98343.94
2022-11-25T06:02:25.685Z,98342.09
2022-11-25T06:03:30.942Z,98343.16
2022-11-25T06:04:32.472Z,98342.22
2022-11-25T06:05:35.156Z,98340.38
2022-11-25T06:06:36.571Z,98335.31
2022-11-25T06:07:38.361Z,98332.41
2022-11-25T06:08:40.317Z,98335.81
2022-11-25T06:09:41.813Z,98336.38
2022-11-25T06:10:43.258Z,98337.16
2022-11-25T06:11:44.714Z,98336.38
2022-11-25T06:12:46.539Z,98327.81
2022-11-25T06:13:48.583Z,98331.06
2022-11-25T06:14:51.295Z,98336.56
2022-11-25T06:15:52.852Z,98327.19
2022-11-25T06:16:54.568Z,98339.28
2022-11-25T06:17:56.352Z,98332.25
2022-11-25T06:18:57.794Z,98336.06
2022-11-25T06:19:59.412Z,98341.47
2022-11-25T06:21:00.909Z,98346.22
2022-11-25T06:22:02.342Z,98336.72
2022-11-25T06:23:04.149Z,98333.53
2022-11-25T06:24:05.976Z,98341.78
2022-11-25T06:25:07.810Z,98344.41
2022-11-25T06:26:18.354Z,98345.66
2022-11-25T06:27:19.853Z,98341.22
2022-11-25T06:28:21.472Z,98340.44
2022-11-25T06:29:22.875Z,98340.44
2022-11-25T06:30:24.461Z,98343.34
2022-11-25T06:31:26.811Z,98345.97
2022-11-25T06:32:28.437Z,98347.50
2022-11-25T06:33:29.881Z,98348.84
2022-11-25T06:34:31.310Z,98350.22
2022-11-25T06:35:32.758Z,98358.47
2022-11-25T06:36:34.306Z,98347.78
2022-11-25T06:37:35.764Z,98351.44
2022-11-25T06:38:37.210Z,98349.16
2022-11-25T06:39:38.721Z,98352.06
2022-11-25T06:40:40.155Z,98353.13
2022-11-25T06:41:41.657Z,98357.53
2022-11-25T06:42:43.562Z,98362.28
2022-11-25T06:43:45.152Z,98361.97
2022-11-25T06:44:46.582Z,98360.94
2022-11-25T06:45:48.015Z,98363.53
2022-11-25T06:46:49.507Z,98363.22
2022-11-25T06:47:51.155Z,98362.47
2022-11-25T06:48:53.755Z,98365.84
2022-11-25T06:49:55.314Z,98362.34
2022-11-25T06:51:01.479Z,98363.88
2022-11-25T06:52:03.089Z,98362.53
2022-11-25T06:53:04.584Z,98370.47
2022-11-25T06:54:07.211Z,98369.72
2022-11-25T06:55:09.100Z,98369.25
2022-11-25T06:56:16.907Z,98376.59
2022-11-25T06:57:19.509Z,98379.19
2022-11-25T06:58:35.557Z,98381.03
2022-11-25T06:59:38.585Z,98374.47
2022-11-25T07:00:39.998Z,98383.50
2022-11-25T07:01:41.538Z,98383.22
2022-11-25T07:02:48.009Z,98382.91
2022-11-25T07:03:53.272Z,98384.94
2022-11-25T07:04:54.713Z,98388.31
2022-11-25T07:05:59.722Z,98389.06
2022-11-25T07:07:01.158Z,98392.13
2022-11-25T07:08:02.623Z,98391.84
2022-11-25T07:09:05.264Z,98389.25
2022-11-25T07:10:07.854Z,98386.66
2022-11-25T07:11:30.435Z,98392.31
2022-11-25T07:12:31.923Z,98392.75
2022-11-25T07:13:34.092Z,98390.97
2022-11-25T07:14:35.845Z,98398.16
2022-11-25T07:15:38.401Z,98398.16
2022-11-25T07:16:43.812Z,98399.22
2022-11-25T07:17:45.976Z,98400.00
2022-11-25T07:18:47.477Z,98407.03
2022-11-25T07:19:49.027Z,98409.81
2022-11-25T07:20:50.463Z,98410.59
2022-11-25T07:21:51.970Z,98401.69
2022-11-25T07:22:53.812Z,98402.97
2022-11-25T07:23:55.425Z,98408.94
2022-11-25T07:24:56.870Z,98406.31
2022-11-25T07:26:03.370Z,98408.63
2022-11-25T07:27:06.856Z,98403.09
2022-11-25T07:28:08.340Z,98407.72
2022-11-25T07:31:55.430Z,98409.56
2022-11-25T07:32:56.925Z,98408.50
2022-11-25T07:33:58.285Z,98402.69
2022-11-25T07:34:59.715Z,98405.44
2022-11-25T07:36:02.915Z,98409.31
2022-11-25T07:37:04.422Z,98405.34
2022-11-25T07:38:05.871Z,98412.53
2022-11-25T07:39:11.739Z,98413.03
2022-11-25T07:40:13.400Z,98415.78
2022-11-25T07:41:17.362Z,98419.63
2022-11-25T07:42:18.827Z,98415.19
2022-11-25T07:43:20.309Z,98423.78
2022-11-25T07:44:22.054Z,98432.34
2022-11-25T07:45:24.440Z,98427.63
2022-11-25T07:46:34.370Z,98432.53
2022-11-25T07:47:35.863Z,98435.31
2022-11-25T07:48:37.643Z,98432.09
2022-11-25T07:49:39.440Z,98434.88
2022-11-25T07:50:40.933Z,98433.78
2022-11-25T07:51:47.726Z,98439.47
2022-11-25T07:52:49.193Z,98432.28
2022-11-25T07:53:51.516Z,98436.28
2022-11-25T07:54:53.409Z,98427.88
2022-11-25T07:55:54.893Z,98439.06
2022-11-25T07:56:56.804Z,98441.38
2022-11-25T07:57:58.240Z,98435.88
2022-11-25T07:58:59.988Z,98439.69
2022-11-25T08:00:01.610Z,98439.88
2022-11-25T08:01:08.034Z,98442.63
2022-11-25T08:02:10.588Z,98446.47
2022-11-25T08:03:12.495Z,98446.19
2022-11-25T08:04:19.746Z,98446.63
2022-11-25T08:05:22.089Z,98448.94
2022-11-25T08:06:26.819Z,98454.78
2022-11-25T08:07:32.037Z,98452.97
2022-11-25T08:08:39.725Z,98453.09
2022-11-25T08:09:41.239Z,98456.94
2022-11-25T08:10:42.701Z,98455.56
2022-11-25T08:11:44.204Z,98441.47
2022-11-25T08:12:45.614Z,98451.00
2022-11-25T08:13:48.279Z,98445.16
2022-11-25T08:14:49.703Z,98450.84
2022-11-25T08:15:51.771Z,98445.31
2022-11-25T08:16:53.201Z,98446.25
2022-11-25T08:17:54.621Z,98443.00
2022-11-25T08:18:56.437Z,98439.03
2022-11-25T08:19:57.842Z,98441.63
2022-11-25T08:21:04.808Z,98435.06
2022-11-25T08:22:06.624Z,98445.63
2022-11-25T08:23:08.083Z,98440.13
2022-11-25T08:24:18.388Z,98439.97
2022-11-25T08:25:19.799Z,98437.03
2022-11-25T08:26:33.932Z,98436.59
2022-11-25T08:27:35.424Z,98433.34
2022-11-25T08:28:38.231Z,98435.03
2022-11-25T08:29:39.739Z,98432.44
2022-11-25T08:30:41.195Z,98428.88
2022-11-25T08:31:43.181Z,98430.91
2022-11-25T08:32:44.857Z,98424.91
2022-11-25T08:33:47.185Z,98424.75
2022-11-25T08:34:48.660Z,98427.66
2022-11-25T08:35:54.319Z,98425.50
2022-11-25T08:36:55.802Z,98434.56
2022-11-25T08:37:57.254Z,98431.34
2022-11-25T08:39:00.893Z,98437.00
2022-11-25T08:40:02.445Z,98439.34
2022-11-25T08:41:08.558Z,98444.69
2022-11-25T08:42:10.010Z,98439.28
2022-11-25T08:43:11.564Z,98434.53
2022-11-25T08:44:13.927Z,98429.88
2022-11-25T08:45:15.443Z,98436.91
2022-11-25T08:46:22.996Z,98437.75
2022-11-25T08:47:24.724Z,98443.03
2022-11-25T08:48:26.142Z,98448.00
2022-11-25T08:49:32.794Z,98453.97
2022-11-25T08:50:37.598Z,98455.38
2022-11-25T08:51:39.548Z,98459.47
2022-11-25T08:52:41.523Z,98461.16
2022-11-25T08:53:44.654Z,98466.03
2022-11-25T08:54:46.148Z,98465.63
2022-11-25T08:55:48.369Z,98464.91
2022-11-25T08:56:49.843Z,98472.13
2022-11-25T08:57:51.418Z,98467.38
2022-11-25T08:58:54.523Z,98476.34
2022-11-25T08:59:56.009Z,98481.13
2022-11-25T09:00:57.568Z,98471.56
2022-11-25T09:01:59.089Z,98476.13
2022-11-25T09:03:03.516Z,98467.81
2022-11-25T09:04:05.888Z,98474.22
2022-11-25T09:05:07.650Z,98477.88
2022-11-25T09:06:10.110Z,98468.53
2022-11-25T09:07:11.627Z,98472.69
2022-11-25T09:08:13.217Z,98471.56
2022-11-25T09:09:14.768Z,98472.31
2022-11-25T09:10:17.651Z,98475.41
2022-11-25T09:11:19.160Z,98478.41
2022-11-25T09:12:20.672Z,98470.69
2022-11-25T09:13:22.246Z,98475.59
2022-11-25T09:14:23.806Z,98474.41
2022-11-25T09:15:25.711Z,98469.75
2022-11-25T09:16:28.467Z,98468.72
2022-11-25T09:17:29.968Z,98466.38
2022-11-25T09:18:32.603Z,98471.31
2022-11-25T09:19:34.402Z,98468.41
2022-11-25T09:20:38.691Z,98461.81
2022-11-25T09:21:40.264Z,98470.72
2022-11-25T09:22:41.725Z,98467.91
2022-11-25T09:23:43.737Z,98464.25
2022-11-25T09:24:45.429Z,98466.69
2022-11-25T09:25:57.168Z,98474.78
2022-11-25T09:26:58.578Z,98463.88
2022-11-25T09:28:00.047Z,98469.00
2022-11-25T09:29:01.615Z,98455.47
2022-11-25T09:30:03.260Z,98464.47
2022-11-25T09:31:09.459Z,98460.22
2022-11-25T09:32:11.061Z,98463.28
2022-11-25T09:33:12.501Z,98457.06
2022-11-25T09:34:14.327Z,98461.03
2022-11-25T09:35:16.207Z,98459.34
2022-11-25T09:36:19.939Z,98456.09
2022-11-25T09:37:21.412Z,98453.25
2022-11-25T09:38:22.901Z,98464.81
2022-11-25T09:39:29.990Z,98461.03
2022-11-25T09:40:48.257Z,98455.78
2022-11-25T09:42:23.606Z,98455.34
2022-11-25T09:43:46.895Z,98461.88
2022-11-25T09:45:15.345Z,98456.75
2022-11-25T09:46:45.901Z,98467.78
2022-11-25T09:48:00.848Z,98464.28
2022-11-25T09:49:15.402Z,98467.13
2022-11-25T09:50:51.051Z,98466.66
2022-11-25T09:52:30.167Z,98464.16
2022-11-25T09:54:04.097Z,98465.56
2022-11-25T09:55:16.026Z,98460.44
2022-11-25T09:56:39.206Z,98466.69
2022-11-25T09:57:46.498Z,98475.38
2022-11-25T09:58:58.040Z,98470.75
2022-11-25T10:00:10.591Z,98475.88
2022-11-25T10:01:21.153Z,98469.03
2022-11-25T10:02:34.777Z,98470.91
2022-11-25T10:03:41.292Z,98472.69
2022-11-25T10:04:55.403Z,98471.25
2022-11-25T10:06:08.232Z,98465.53
2022-11-25T10:07:21.131Z,98463.44
2022-11-25T10:08:27.167Z,98452.66
2022-11-25T10:09:35.609Z,98455.59
2022-11-25T10:11:02.190Z,98461.41
2022-11-25T10:12:13.325Z,98460.66
2022-11-25T10:13:30.302Z,98462.59
2022-11-25T10:14:47.358Z,98458.00
2022-11-25T10:15:50.928Z,98448.81
2022-11-25T10:16:58.306Z,98449.50
2022-11-25T10:18:27.459Z,98450.59
2022-11-25T10:19:40.998Z,98455.75
2022-11-25T10:20:42.548Z,98451.69
2022-11-25T10:21:46.342Z,98449.41
2022-11-25T10:22:54.974Z,98454.88
2022-11-25T10:23:57.162Z,98451.38
2022-11-25T10:25:02.103Z,98453.13
2022-11-25T10:26:13.865Z,98455.31
2022-11-25T10:27:21.409Z,98453.03
2022-11-25T10:28:29.583Z,98457.94
2022-11-25T10:29:32.717Z,98459.59
2022-11-25T10:30:39.117Z,98465.91
2022-11-25T10:31:43.015Z,98466.13
2022-11-25T10:33:12.551Z,98463.06
2022-11-25T10:34:45.132Z,98462.31
2022-11-25T10:35:49.060Z,98461.75
2022-11-25T10:36:52.843Z,98458.91
2022-11-25T10:37:56.268Z,98461.00
2022-11-25T10:39:07.878Z,98457.59
2022-11-25T10:40:15.643Z,98451.78
2022-11-25T10:41:20.898Z,98448.06
2022-11-25T10:42:26.237Z,98445.22
2022-11-25T10:43:31.715Z,98444.56
2022-11-25T10:44:36.435Z,98445.97
2022-11-25T10:45:45.629Z,98442.47
2022-11-25T10:47:15.208Z,98436.03
2022-11-25T10:48:44.517Z,98433.59
2022-11-25T10:49:54.241Z,98432.09
2022-11-25T10:51:04.562Z,98434.53
2022-11-25T10:52:12.250Z,98435.69
2022-11-25T10:53:22.549Z,98430.56
2022-11-25T10:54:39.134Z,98428.91
2022-11-25T10:55:57.413Z,98435.22
2022-11-25T10:57:01.649Z,98432.84
2022-11-25T10:58:30.355Z,98432.25
2022-11-25T10:59:39.850Z,98425.34
2022-11-25T11:00:41.324Z,98435.84
2022-11-25T11:01:42.979Z,98432.66
2022-11-25T11:02:48.299Z,98430.88
2022-11-25T11:04:02.436Z,98436.44
2022-11-25T11:05:09.629Z,98430.75
2022-11-25T11:06:32.046Z,98438.00
2022-11-25T11:07:36.742Z,98435.84
2022-11-25T11:08:40.274Z,98440.75
2022-11-25T11:09:42.103Z,98438.88
2022-11-25T11:10:44.314Z,98444.38
2022-11-25T11:11:49.644Z,98440.63
2022-11-25T11:12:56.633Z,98443.63
2022-11-25T11:14:12.388Z,98432.03
2022-11-25T11:15:22.984Z,98442.97
2022-11-25T11:16:41.425Z,98437.03
2022-11-25T11:17:43.080Z,98443.75
2022-11-25T11:18:44.609Z,98436.84
2022-11-25T11:20:20.319Z,98444.50
2022-11-25T11:21:41.890Z,98445.72
2022-11-25T11:22:51.657Z,98444.72
2022-11-25T11:23:54.996Z,98440.22
2022-11-25T11:25:24.501Z,98435.97
2022-11-25T11:26:34.481Z,98430.59
2022-11-25T11:27:37.785Z,98433.28
2022-11-25T11:28:41.252Z,98435.06
2022-11-25T11:29:43.014Z,98430.66
2022-11-25T11:30:57.210Z,98438.44
2022-11-25T11:32:02.260Z,98441.06
2022-11-25T11:33:35.663Z,98440.06
2022-11-25T11:35:18.977Z,98439.13
2022-11-25T11:36:55.767Z,98443.09
2022-11-25T11:38:05.627Z,98433.81
2022-11-25T11:39:36.212Z,98438.50
2022-11-25T11:40:50.389Z,98443.75
2022-11-25T11:42:39.456Z,98440.47
2022-11-25T11:43:44.198Z,98437.13
2022-11-25T11:45:05.090Z,98437.00
2022-11-25T11:46:15.653Z,98435.38
2022-11-25T11:47:30.344Z,98436.84
2022-11-25T11:48:53.679Z,98450.16
2022-11-25T11:50:25.182Z,98451.25
2022-11-25T11:51:44.030Z,98444.78
2022-11-25T11:52:48.413Z,98446.66
2022-11-25T11:53:57.943Z,98447.88
2022-11-25T11:55:20.384Z,98451.13
2022-11-25T11:56:35.398Z,98448.16
2022-11-25T11:57:47.014Z,98453.66
2022-11-25T11:59:05.874Z,98451.78
2022-11-25T12:00:14.737Z,98450.25
2022-11-25T12:01:16.113Z,98456.50
2022-11-25T12:02:20.543Z,98452.75
2022-11-25T12:03:25.461Z,98455.03
2022-11-25T12:04:38.288Z,98460.41
2022-11-25T12:05:40.143Z,98458.00
2022-11-25T12:06:45.656Z,98452.28
2022-11-25T12:07:51.540Z,98456.41
2022-11-25T12:09:01.522Z,98463.41
2022-11-25T12:10:15.019Z,98448.34
2022-11-25T12:11:20.929Z,98449.88
2022-11-25T12:12:33.851Z,98456.06
2022-11-25T12:14:01.356Z,98447.94
2022-11-25T12:15:06.266Z,98453.66
2022-11-25T12:16:24.375Z,98445.88
2022-11-25T12:17:28.636Z,98440.22
2022-11-25T12:18:49.020Z,98435.38
2022-11-25T12:20:29.410Z,98444.91
2022-11-25T12:21:46.060Z,98449.34
2022-11-25T12:22:57.993Z,98444.09
2022-11-25T12:24:17.671Z,98454.25
2022-11-25T12:25:35.523Z,98449.66
2022-11-25T12:26:46.946Z,98450.50
2022-11-25T12:28:20.865Z,98435.28
2022-11-25T12:29:40.087Z,98443.25
2022-11-25T12:31:05.449Z,98444.88
2022-11-25T12:32:56.592Z,98451.88
2022-11-25T12:34:04.134Z,98447.38
2022-11-25T12:35:11.631Z,98451.88
2022-11-25T12:36:20.790Z,98455.72
2022-11-25T12:37:40.626Z,98456.25
2022-11-25T12:39:11.680Z,98457.66
2022-11-25T12:40:31.852Z,98458.41
2022-11-25T12:41:50.737Z,98453.66
2022-11-25T12:42:56.739Z,98460.56
2022-11-25T12:44:03.043Z,98454.97
2022-11-25T12:45:20.349Z,98461.88
2022-11-25T12:46:36.747Z,98457.03
2022-11-25T12:47:38.254Z,98457.78
2022-11-25T12:48:41.924Z,98454.06
2022-11-25T12:49:47.287Z,98460.00
2022-11-25T12:51:13.369Z,98463.50
2022-11-25T12:52:33.173Z,98468.53